sensor_id;sensor_type;location;lat;lon;timestamp;temperature;humidity
13074;DHT22;6603;47.066;15.396;2023-09-19T00:00:21;19.10;99.90
13074;DHT22;6603;47.066;15.396;2023-09-19T00:02:55;19.00;99.90
13074;DHT22;6603;47.066;15.396;2023-09-19T00:05:25;19.00;99.90
13074;DHT22;6603;47.066;15.396;2023-09-19T00:07:54;18.80;99.90
13074;DHT22;6603;47.066;15.396;2023-09-19T00:10:27;18.80;99.90
13074;DHT22;6603;47.066;15.396;2023-09-19T00:12:58;18.80;99.90
13074;DHT22;6603;47.066;15.396;2023-09-19T00:15:35;19.00;99.90
13074;DHT22;6603;47.066;15.396;2023-09-19T00:18:01;19.10;99.90
13074;DHT22;6603;47.066;15.396;2023-09-19T00:20:27;19.10;99.90
13074;DHT22;6603;47.066;15.396;2023-09-19T00:22:55;19.10;99.90
13074;DHT22;6603;47.066;15.396;2023-09-19T00:25:21;19.20;99.90
13074;DHT22;6603;47.066;15.396;2023-09-19T00:27:47;19.20;99.90
13074;DHT22;6603;47.066;15.396;2023-09-19T00:30:13;19.20;99.90
13074;DHT22;6603;47.066;15.396;2023-09-19T00:32:46;19.30;99.90
13074;DHT22;6603;47.066;15.396;2023-09-19T00:35:17;19.30;99.90
13074;DHT22;6603;47.066;15.396;2023-09-19T00:37:44;19.30;99.90
13074;DHT22;6603;47.066;15.396;2023-09-19T00:40:14;19.30;99.90
13074;DHT22;6603;47.066;15.396;2023-09-19T00:42:45;19.20;99.90
13074;DHT22;6603;47.066;15.396;2023-09-19T00:45:13;19.20;99.90
13074;DHT22;6603;47.066;15.396;2023-09-19T00:47:42;19.10;99.90
13074;DHT22;6603;47.066;15.396;2023-09-19T00:50:10;19.00;99.90
13074;DHT22;6603;47.066;15.396;2023-09-19T00:52:37;18.90;99.90
13074;DHT22;6603;47.066;15.396;2023-09-19T00:55:10;18.80;99.90
13074;DHT22;6603;47.066;15.396;2023-09-19T00:57:38;18.70;99.90
13074;DHT22;6603;47.066;15.396;2023-09-19T01:00:08;18.60;99.90
13074;DHT22;6603;47.066;15.396;2023-09-19T01:02:37;18.50;99.90
13074;DHT22;6603;47.066;15.396;2023-09-19T01:05:05;18.40;99.90
13074;DHT22;6603;47.066;15.396;2023-09-19T01:07:32;18.40;99.90
13074;DHT22;6603;47.066;15.396;2023-09-19T01:10:02;18.40;99.90
13074;DHT22;6603;47.066;15.396;2023-09-19T01:15:32;18.40;99.90
13074;DHT22;6603;47.066;15.396;2023-09-19T01:18:35;18.30;99.90
13074;DHT22;6603;47.066;15.396;2023-09-19T01:29:46;18.20;99.90
13074;DHT22;6603;47.066;15.396;2023-09-19T01:32:17;18.20;99.90
13074;DHT22;6603;47.066;15.396;2023-09-19T01:34:49;18.20;99.90
13074;DHT22;6603;47.066;15.396;2023-09-19T01:37:17;18.30;99.90
13074;DHT22;6603;47.066;15.396;2023-09-19T01:39:51;18.30;99.90
13074;DHT22;6603;47.066;15.396;2023-09-19T01:42:41;18.40;99.90
13074;DHT22;6603;47.066;15.396;2023-09-19T01:47:55;18.40;99.90
13074;DHT22;6603;47.066;15.396;2023-09-19T01:53:03;18.40;99.90
13074;DHT22;6603;47.066;15.396;2023-09-19T01:55:30;18.40;99.90
13074;DHT22;6603;47.066;15.396;2023-09-19T01:58:31;18.30;99.90
13074;DHT22;6603;47.066;15.396;2023-09-19T02:01:00;18.30;99.90
13074;DHT22;6603;47.066;15.396;2023-09-19T02:03:28;18.30;99.90
13074;DHT22;6603;47.066;15.396;2023-09-19T02:05:55;18.40;99.90
13074;DHT22;6603;47.066;15.396;2023-09-19T02:08:22;18.50;99.90
13074;DHT22;6603;47.066;15.396;2023-09-19T02:10:52;18.60;99.90
13074;DHT22;6603;47.066;15.396;2023-09-19T02:13:19;18.70;99.90
13074;DHT22;6603;47.066;15.396;2023-09-19T02:15:45;18.80;99.90
13074;DHT22;6603;47.066;15.396;2023-09-19T02:18:15;18.90;99.90
13074;DHT22;6603;47.066;15.396;2023-09-19T02:20:41;19.00;99.90
13074;DHT22;6603;47.066;15.396;2023-09-19T02:23:11;19.30;49.40
13074;DHT22;6603;47.066;15.396;2023-09-19T02:25:41;19.30;64.00
13074;DHT22;6603;47.066;15.396;2023-09-19T02:28:09;19.20;94.30
13074;DHT22;6603;47.066;15.396;2023-09-19T02:30:35;19.40;35.00
13074;DHT22;6603;47.066;15.396;2023-09-19T02:33:02;19.40;39.00
13074;DHT22;6603;47.066;15.396;2023-09-19T02:35:29;19.40;30.50
13074;DHT22;6603;47.066;15.396;2023-09-19T02:38:00;19.40;20.80
13074;DHT22;6603;47.066;15.396;2023-09-19T02:40:28;19.40;3.10
13074;DHT22;6603;47.066;15.396;2023-09-19T02:42:55;19.40;1.00
13074;DHT22;6603;47.066;15.396;2023-09-19T02:45:21;19.60;1.00
13074;DHT22;6603;47.066;15.396;2023-09-19T02:47:49;19.60;1.00
13074;DHT22;6603;47.066;15.396;2023-09-19T02:50:15;19.70;1.00
13074;DHT22;6603;47.066;15.396;2023-09-19T02:52:43;19.70;1.00
13074;DHT22;6603;47.066;15.396;2023-09-19T02:55:11;19.70;1.00
13074;DHT22;6603;47.066;15.396;2023-09-19T02:57:38;19.60;1.00
13074;DHT22;6603;47.066;15.396;2023-09-19T03:00:09;19.50;1.00
13074;DHT22;6603;47.066;15.396;2023-09-19T03:02:37;19.40;1.00
13074;DHT22;6603;47.066;15.396;2023-09-19T03:05:07;19.50;1.00
13074;DHT22;6603;47.066;15.396;2023-09-19T03:07:33;19.30;1.00
13074;DHT22;6603;47.066;15.396;2023-09-19T03:13:07;19.00;1.00
13074;DHT22;6603;47.066;15.396;2023-09-19T03:15:35;18.80;13.40
13074;DHT22;6603;47.066;15.396;2023-09-19T03:18:04;18.80;1.00
13074;DHT22;6603;47.066;15.396;2023-09-19T03:20:31;18.80;1.00
13074;DHT22;6603;47.066;15.396;2023-09-19T03:22:57;18.80;3.30
13074;DHT22;6603;47.066;15.396;2023-09-19T03:25:23;18.70;1.00
13074;DHT22;6603;47.066;15.396;2023-09-19T03:27:50;18.70;37.60
13074;DHT22;6603;47.066;15.396;2023-09-19T03:30:15;18.60;31.50
13074;DHT22;6603;47.066;15.396;2023-09-19T03:32:46;18.50;47.80
13074;DHT22;6603;47.066;15.396;2023-09-19T03:35:12;18.40;99.90
13074;DHT22;6603;47.066;15.396;2023-09-19T03:37:41;18.40;99.90
13074;DHT22;6603;47.066;15.396;2023-09-19T03:40:11;18.30;99.90
13074;DHT22;6603;47.066;15.396;2023-09-19T03:42:40;18.30;99.90
13074;DHT22;6603;47.066;15.396;2023-09-19T03:45:09;18.20;99.90
13074;DHT22;6603;47.066;15.396;2023-09-19T03:47:39;18.10;99.90
13074;DHT22;6603;47.066;15.396;2023-09-19T03:50:06;18.00;99.90
13074;DHT22;6603;47.066;15.396;2023-09-19T03:52:33;17.90;99.90
13074;DHT22;6603;47.066;15.396;2023-09-19T03:54:59;17.80;99.90
13074;DHT22;6603;47.066;15.396;2023-09-19T03:57:26;17.80;99.90
13074;DHT22;6603;47.066;15.396;2023-09-19T03:59:52;17.80;99.90
13074;DHT22;6603;47.066;15.396;2023-09-19T04:02:20;17.80;99.90
13074;DHT22;6603;47.066;15.396;2023-09-19T04:04:50;17.70;99.90
13074;DHT22;6603;47.066;15.396;2023-09-19T04:07:16;17.70;99.90
13074;DHT22;6603;47.066;15.396;2023-09-19T04:09:42;17.70;99.90
13074;DHT22;6603;47.066;15.396;2023-09-19T04:12:08;17.70;99.90
13074;DHT22;6603;47.066;15.396;2023-09-19T04:14:37;17.70;99.90
13074;DHT22;6603;47.066;15.396;2023-09-19T04:17:04;17.70;99.90
13074;DHT22;6603;47.066;15.396;2023-09-19T04:19:31;17.70;99.90
13074;DHT22;6603;47.066;15.396;2023-09-19T04:21:57;17.70;99.90
13074;DHT22;6603;47.066;15.396;2023-09-19T04:24:22;17.70;99.90
13074;DHT22;6603;47.066;15.396;2023-09-19T04:26:48;17.60;99.90
13074;DHT22;6603;47.066;15.396;2023-09-19T04:29:14;17.60;99.90
13074;DHT22;6603;47.066;15.396;2023-09-19T04:31:40;17.50;99.90
13074;DHT22;6603;47.066;15.396;2023-09-19T04:34:09;17.40;99.90
13074;DHT22;6603;47.066;15.396;2023-09-19T04:36:35;17.40;99.90
13074;DHT22;6603;47.066;15.396;2023-09-19T04:39:03;17.30;99.90
13074;DHT22;6603;47.066;15.396;2023-09-19T04:41:32;17.30;99.90
13074;DHT22;6603;47.066;15.396;2023-09-19T04:43:59;17.30;99.90
13074;DHT22;6603;47.066;15.396;2023-09-19T04:46:25;17.30;99.90
13074;DHT22;6603;47.066;15.396;2023-09-19T04:48:51;17.30;99.90
13074;DHT22;6603;47.066;15.396;2023-09-19T04:51:17;17.40;99.90
13074;DHT22;6603;47.066;15.396;2023-09-19T04:53:44;17.40;99.90
13074;DHT22;6603;47.066;15.396;2023-09-19T04:56:09;17.40;99.90
13074;DHT22;6603;47.066;15.396;2023-09-19T04:58:35;17.30;99.90
13074;DHT22;6603;47.066;15.396;2023-09-19T05:01:01;17.20;99.90
13074;DHT22;6603;47.066;15.396;2023-09-19T05:03:27;17.20;99.90
13074;DHT22;6603;47.066;15.396;2023-09-19T05:05:53;17.10;99.90
13074;DHT22;6603;47.066;15.396;2023-09-19T05:08:19;17.10;99.90
13074;DHT22;6603;47.066;15.396;2023-09-19T05:10:45;17.10;99.90
13074;DHT22;6603;47.066;15.396;2023-09-19T05:13:10;17.20;99.90
13074;DHT22;6603;47.066;15.396;2023-09-19T05:15:37;17.30;99.90
13074;DHT22;6603;47.066;15.396;2023-09-19T05:18:03;17.20;99.90
13074;DHT22;6603;47.066;15.396;2023-09-19T05:20:31;17.30;99.90
13074;DHT22;6603;47.066;15.396;2023-09-19T05:23:00;17.20;99.90
13074;DHT22;6603;47.066;15.396;2023-09-19T05:25:35;17.20;99.90
13074;DHT22;6603;47.066;15.396;2023-09-19T05:28:09;17.30;99.90
13074;DHT22;6603;47.066;15.396;2023-09-19T05:30:37;17.20;99.90
13074;DHT22;6603;47.066;15.396;2023-09-19T05:33:06;17.30;99.90
13074;DHT22;6603;47.066;15.396;2023-09-19T05:35:33;17.20;99.90
13074;DHT22;6603;47.066;15.396;2023-09-19T05:37:59;17.20;99.90
13074;DHT22;6603;47.066;15.396;2023-09-19T05:40:26;17.10;99.90
13074;DHT22;6603;47.066;15.396;2023-09-19T05:42:52;17.10;99.90
13074;DHT22;6603;47.066;15.396;2023-09-19T05:45:18;17.10;99.90
13074;DHT22;6603;47.066;15.396;2023-09-19T05:47:51;17.20;99.90
13074;DHT22;6603;47.066;15.396;2023-09-19T05:50:17;17.30;99.90
13074;DHT22;6603;47.066;15.396;2023-09-19T05:52:47;17.30;99.90
13074;DHT22;6603;47.066;15.396;2023-09-19T05:55:18;17.40;99.90
13074;DHT22;6603;47.066;15.396;2023-09-19T05:57:43;17.40;99.90
13074;DHT22;6603;47.066;15.396;2023-09-19T06:00:15;17.40;99.90
13074;DHT22;6603;47.066;15.396;2023-09-19T06:02:43;17.50;99.90
13074;DHT22;6603;47.066;15.396;2023-09-19T06:05:10;17.50;99.90
13074;DHT22;6603;47.066;15.396;2023-09-19T06:07:37;17.70;99.90
13074;DHT22;6603;47.066;15.396;2023-09-19T06:10:06;17.70;99.90
13074;DHT22;6603;47.066;15.396;2023-09-19T06:12:39;17.80;99.90
13074;DHT22;6603;47.066;15.396;2023-09-19T06:15:05;17.80;99.90
13074;DHT22;6603;47.066;15.396;2023-09-19T06:17:31;17.80;99.90
13074;DHT22;6603;47.066;15.396;2023-09-19T06:19:57;17.80;99.90
13074;DHT22;6603;47.066;15.396;2023-09-19T06:22:23;17.70;99.90
13074;DHT22;6603;47.066;15.396;2023-09-19T06:24:50;17.70;99.90
13074;DHT22;6603;47.066;15.396;2023-09-19T06:27:15;17.80;99.90
13074;DHT22;6603;47.066;15.396;2023-09-19T06:29:41;17.80;99.90
13074;DHT22;6603;47.066;15.396;2023-09-19T06:32:08;17.80;99.90
13074;DHT22;6603;47.066;15.396;2023-09-19T06:34:37;17.90;99.90
13074;DHT22;6603;47.066;15.396;2023-09-19T06:37:04;17.90;99.90
13074;DHT22;6603;47.066;15.396;2023-09-19T06:39:32;17.90;99.90
13074;DHT22;6603;47.066;15.396;2023-09-19T06:41:58;17.90;99.90
13074;DHT22;6603;47.066;15.396;2023-09-19T06:44:27;18.00;99.90
13074;DHT22;6603;47.066;15.396;2023-09-19T06:46:55;17.90;99.90
13074;DHT22;6603;47.066;15.396;2023-09-19T06:49:21;18.00;99.90
13074;DHT22;6603;47.066;15.396;2023-09-19T06:51:46;17.90;99.90
13074;DHT22;6603;47.066;15.396;2023-09-19T06:54:12;18.10;99.90
13074;DHT22;6603;47.066;15.396;2023-09-19T06:56:38;18.20;99.90
13074;DHT22;6603;47.066;15.396;2023-09-19T06:59:05;18.30;99.90
13074;DHT22;6603;47.066;15.396;2023-09-19T07:01:32;18.30;99.90
13074;DHT22;6603;47.066;15.396;2023-09-19T07:03:59;18.40;99.90
13074;DHT22;6603;47.066;15.396;2023-09-19T07:06:25;18.50;99.90
13074;DHT22;6603;47.066;15.396;2023-09-19T07:08:51;18.50;99.90
13074;DHT22;6603;47.066;15.396;2023-09-19T07:11:17;18.60;99.90
13074;DHT22;6603;47.066;15.396;2023-09-19T07:13:43;18.60;99.90
13074;DHT22;6603;47.066;15.396;2023-09-19T07:16:09;18.40;99.90
13074;DHT22;6603;47.066;15.396;2023-09-19T07:18:53;18.40;99.90
13074;DHT22;6603;47.066;15.396;2023-09-19T07:21:23;18.50;99.90
13074;DHT22;6603;47.066;15.396;2023-09-19T07:23:49;18.50;99.90
13074;DHT22;6603;47.066;15.396;2023-09-19T07:26:16;18.50;99.90
13074;DHT22;6603;47.066;15.396;2023-09-19T07:28:42;18.50;99.90
13074;DHT22;6603;47.066;15.396;2023-09-19T07:31:09;18.50;99.90
13074;DHT22;6603;47.066;15.396;2023-09-19T07:33:36;18.50;99.90
13074;DHT22;6603;47.066;15.396;2023-09-19T07:36:02;18.50;99.90
13074;DHT22;6603;47.066;15.396;2023-09-19T07:38:28;18.50;99.90
13074;DHT22;6603;47.066;15.396;2023-09-19T07:41:00;18.40;99.90
13074;DHT22;6603;47.066;15.396;2023-09-19T07:43:26;18.40;99.90
13074;DHT22;6603;47.066;15.396;2023-09-19T07:45:52;18.40;99.90
13074;DHT22;6603;47.066;15.396;2023-09-19T07:48:19;18.30;99.90
13074;DHT22;6603;47.066;15.396;2023-09-19T07:50:44;18.30;99.90
13074;DHT22;6603;47.066;15.396;2023-09-19T07:53:11;18.40;99.90
13074;DHT22;6603;47.066;15.396;2023-09-19T07:55:39;18.50;99.90
13074;DHT22;6603;47.066;15.396;2023-09-19T07:58:07;18.60;99.90
13074;DHT22;6603;47.066;15.396;2023-09-19T08:00:33;18.70;99.90
13074;DHT22;6603;47.066;15.396;2023-09-19T08:03:00;19.00;99.90
13074;DHT22;6603;47.066;15.396;2023-09-19T08:05:26;19.00;99.90
13074;DHT22;6603;47.066;15.396;2023-09-19T08:07:53;19.20;99.90
13074;DHT22;6603;47.066;15.396;2023-09-19T08:10:22;19.20;99.90
13074;DHT22;6603;47.066;15.396;2023-09-19T08:12:48;19.20;99.90
13074;DHT22;6603;47.066;15.396;2023-09-19T08:15:18;19.30;99.90
13074;DHT22;6603;47.066;15.396;2023-09-19T08:17:48;19.50;99.90
13074;DHT22;6603;47.066;15.396;2023-09-19T08:20:14;19.70;99.90
13074;DHT22;6603;47.066;15.396;2023-09-19T08:22:51;19.90;99.90
13074;DHT22;6603;47.066;15.396;2023-09-19T08:25:21;20.00;99.90
13074;DHT22;6603;47.066;15.396;2023-09-19T08:27:49;19.90;99.90
13074;DHT22;6603;47.066;15.396;2023-09-19T08:30:16;19.90;99.90
13074;DHT22;6603;47.066;15.396;2023-09-19T08:32:43;20.00;99.90
13074;DHT22;6603;47.066;15.396;2023-09-19T08:35:11;20.00;99.90
13074;DHT22;6603;47.066;15.396;2023-09-19T08:37:36;20.00;99.90
13074;DHT22;6603;47.066;15.396;2023-09-19T08:40:03;20.10;99.90
13074;DHT22;6603;47.066;15.396;2023-09-19T08:42:29;20.20;99.90
13074;DHT22;6603;47.066;15.396;2023-09-19T08:44:55;20.40;99.90
13074;DHT22;6603;47.066;15.396;2023-09-19T08:47:34;20.50;99.90
13074;DHT22;6603;47.066;15.396;2023-09-19T08:50:27;20.70;99.90
13074;DHT22;6603;47.066;15.396;2023-09-19T08:53:01;20.90;99.90
13074;DHT22;6603;47.066;15.396;2023-09-19T08:55:28;21.10;73.70
13074;DHT22;6603;47.066;15.396;2023-09-19T08:58:03;21.30;15.70
13074;DHT22;6603;47.066;15.396;2023-09-19T09:00:30;21.30;9.30
13074;DHT22;6603;47.066;15.396;2023-09-19T09:02:57;21.20;14.80
13074;DHT22;6603;47.066;15.396;2023-09-19T09:05:24;21.50;26.00
13074;DHT22;6603;47.066;15.396;2023-09-19T09:07:52;21.50;4.30
13074;DHT22;6603;47.066;15.396;2023-09-19T09:10:22;21.70;1.00
13074;DHT22;6603;47.066;15.396;2023-09-19T09:12:52;21.80;1.00
13074;DHT22;6603;47.066;15.396;2023-09-19T09:15:23;21.80;1.00
13074;DHT22;6603;47.066;15.396;2023-09-19T09:17:50;21.70;1.00
13074;DHT22;6603;47.066;15.396;2023-09-19T09:20:19;21.60;1.00
13074;DHT22;6603;47.066;15.396;2023-09-19T09:22:52;21.40;1.00
13074;DHT22;6603;47.066;15.396;2023-09-19T09:25:20;21.20;1.00
13074;DHT22;6603;47.066;15.396;2023-09-19T09:28:02;21.20;1.00
13074;DHT22;6603;47.066;15.396;2023-09-19T09:30:36;21.20;1.00
13074;DHT22;6603;47.066;15.396;2023-09-19T09:33:12;21.30;1.00
13074;DHT22;6603;47.066;15.396;2023-09-19T09:35:58;21.40;1.00
13074;DHT22;6603;47.066;15.396;2023-09-19T09:38:48;21.40;12.90
13074;DHT22;6603;47.066;15.396;2023-09-19T09:41:16;21.40;23.90
13074;DHT22;6603;47.066;15.396;2023-09-19T09:43:54;21.60;12.60
13074;DHT22;6603;47.066;15.396;2023-09-19T09:46:21;21.60;1.00
13074;DHT22;6603;47.066;15.396;2023-09-19T09:51:45;21.50;31.90
13074;DHT22;6603;47.066;15.396;2023-09-19T09:54:25;21.50;24.60
13074;DHT22;6603;47.066;15.396;2023-09-19T09:57:15;21.30;26.10
13074;DHT22;6603;47.066;15.396;2023-09-19T09:59:53;21.30;48.90
13074;DHT22;6603;47.066;15.396;2023-09-19T10:02:27;21.30;56.10
13074;DHT22;6603;47.066;15.396;2023-09-19T10:05:12;21.50;43.60
13074;DHT22;6603;47.066;15.396;2023-09-19T10:07:50;21.90;1.00
13074;DHT22;6603;47.066;15.396;2023-09-19T10:10:38;22.20;1.00
13074;DHT22;6603;47.066;15.396;2023-09-19T10:13:13;22.50;1.00
13074;DHT22;6603;47.066;15.396;2023-09-19T10:15:51;22.50;1.00
13074;DHT22;6603;47.066;15.396;2023-09-19T10:18:24;22.40;1.00
13074;DHT22;6603;47.066;15.396;2023-09-19T10:20:51;22.10;1.00
13074;DHT22;6603;47.066;15.396;2023-09-19T10:23:19;22.10;1.00
13074;DHT22;6603;47.066;15.396;2023-09-19T10:25:50;22.40;1.00
13074;DHT22;6603;47.066;15.396;2023-09-19T10:28:17;22.80;1.00
13074;DHT22;6603;47.066;15.396;2023-09-19T10:30:49;22.90;1.00
13074;DHT22;6603;47.066;15.396;2023-09-19T10:33:22;22.70;1.00
13074;DHT22;6603;47.066;15.396;2023-09-19T10:35:52;22.80;1.00
13074;DHT22;6603;47.066;15.396;2023-09-19T10:38:27;22.70;1.00
13074;DHT22;6603;47.066;15.396;2023-09-19T10:40:56;22.80;1.00
13074;DHT22;6603;47.066;15.396;2023-09-19T10:43:30;23.30;1.00
13074;DHT22;6603;47.066;15.396;2023-09-19T10:46:01;23.90;99.90
13074;DHT22;6603;47.066;15.396;2023-09-19T10:48:31;23.80;29.30
13074;DHT22;6603;47.066;15.396;2023-09-19T10:51:14;24.10;1.00
13074;DHT22;6603;47.066;15.396;2023-09-19T10:53:54;24.20;40.00
13074;DHT22;6603;47.066;15.396;2023-09-19T10:56:37;24.20;1.00
13074;DHT22;6603;47.066;15.396;2023-09-19T10:59:12;24.20;99.90
13074;DHT22;6603;47.066;15.396;2023-09-19T11:01:46;24.30;1.00
13074;DHT22;6603;47.066;15.396;2023-09-19T11:04:35;24.20;1.00
13074;DHT22;6603;47.066;15.396;2023-09-19T11:07:10;24.20;99.90
13074;DHT22;6603;47.066;15.396;2023-09-19T11:09:55;24.20;1.00
13074;DHT22;6603;47.066;15.396;2023-09-19T11:12:48;24.10;1.00
13074;DHT22;6603;47.066;15.396;2023-09-19T11:26:45;24.40;1.00
13074;DHT22;6603;47.066;15.396;2023-09-19T11:29:32;24.40;36.60
13074;DHT22;6603;47.066;15.396;2023-09-19T11:31:59;24.40;99.90
13074;DHT22;6603;47.066;15.396;2023-09-19T11:39:38;24.60;1.00
13074;DHT22;6603;47.066;15.396;2023-09-19T11:42:41;24.90;1.00
13074;DHT22;6603;47.066;15.396;2023-09-19T11:48:23;25.50;1.00
13074;DHT22;6603;47.066;15.396;2023-09-19T11:50:53;25.00;1.00
13074;DHT22;6603;47.066;15.396;2023-09-19T11:53:21;25.30;99.90
13074;DHT22;6603;47.066;15.396;2023-09-19T11:55:49;25.50;1.00
13074;DHT22;6603;47.066;15.396;2023-09-19T11:58:16;25.80;65.00
13074;DHT22;6603;47.066;15.396;2023-09-19T12:00:45;25.50;1.00
13074;DHT22;6603;47.066;15.396;2023-09-19T12:03:12;25.20;1.00
13074;DHT22;6603;47.066;15.396;2023-09-19T12:05:40;25.10;1.00
13074;DHT22;6603;47.066;15.396;2023-09-19T12:08:07;25.40;99.90
13074;DHT22;6603;47.066;15.396;2023-09-19T12:10:54;25.40;1.00
13074;DHT22;6603;47.066;15.396;2023-09-19T12:13:23;25.50;1.00
13074;DHT22;6603;47.066;15.396;2023-09-19T12:15:50;25.40;1.00
13074;DHT22;6603;47.066;15.396;2023-09-19T12:18:29;25.40;1.00
13074;DHT22;6603;47.066;15.396;2023-09-19T12:20:56;25.70;1.00
13074;DHT22;6603;47.066;15.396;2023-09-19T12:23:24;25.70;1.00
13074;DHT22;6603;47.066;15.396;2023-09-19T12:25:52;26.10;1.00
13074;DHT22;6603;47.066;15.396;2023-09-19T12:28:24;26.20;1.00
13074;DHT22;6603;47.066;15.396;2023-09-19T12:30:53;26.30;99.90
13074;DHT22;6603;47.066;15.396;2023-09-19T12:33:21;26.40;1.00
13074;DHT22;6603;47.066;15.396;2023-09-19T12:35:52;26.00;99.90
13074;DHT22;6603;47.066;15.396;2023-09-19T12:40:51;26.50;99.90
13074;DHT22;6603;47.066;15.396;2023-09-19T12:43:18;26.40;99.90
13074;DHT22;6603;47.066;15.396;2023-09-19T12:45:44;26.80;99.90
13074;DHT22;6603;47.066;15.396;2023-09-19T12:48:21;26.80;57.00
13074;DHT22;6603;47.066;15.396;2023-09-19T12:51:11;27.10;99.90
13074;DHT22;6603;47.066;15.396;2023-09-19T12:53:46;27.10;3.90
13074;DHT22;6603;47.066;15.396;2023-09-19T12:56:16;27.60;99.90
13074;DHT22;6603;47.066;15.396;2023-09-19T13:01:25;26.80;1.00
13074;DHT22;6603;47.066;15.396;2023-09-19T13:04:12;26.90;92.10
13074;DHT22;6603;47.066;15.396;2023-09-19T13:06:38;27.30;71.80
13074;DHT22;6603;47.066;15.396;2023-09-19T13:09:10;27.30;59.00
13074;DHT22;6603;47.066;15.396;2023-09-19T13:11:37;27.30;1.00
13074;DHT22;6603;47.066;15.396;2023-09-19T13:19:40;26.70;1.00
13074;DHT22;6603;47.066;15.396;2023-09-19T13:22:44;25.90;1.00
13074;DHT22;6603;47.066;15.396;2023-09-19T13:25:20;25.40;99.90
13074;DHT22;6603;47.066;15.396;2023-09-19T13:27:54;25.30;99.90
13074;DHT22;6603;47.066;15.396;2023-09-19T13:30:26;25.00;99.90
13074;DHT22;6603;47.066;15.396;2023-09-19T13:33:09;25.30;99.90
13074;DHT22;6603;47.066;15.396;2023-09-19T13:35:36;25.40;99.90
13074;DHT22;6603;47.066;15.396;2023-09-19T13:38:04;25.10;99.90
13074;DHT22;6603;47.066;15.396;2023-09-19T13:40:30;24.80;1.00
13074;DHT22;6603;47.066;15.396;2023-09-19T13:43:01;24.70;1.00
13074;DHT22;6603;47.066;15.396;2023-09-19T13:45:27;25.20;1.00
13074;DHT22;6603;47.066;15.396;2023-09-19T13:47:56;25.60;1.00
13074;DHT22;6603;47.066;15.396;2023-09-19T13:50:24;26.00;1.00
13074;DHT22;6603;47.066;15.396;2023-09-19T13:52:51;26.10;99.90
13074;DHT22;6603;47.066;15.396;2023-09-19T13:55:19;26.20;99.90
13074;DHT22;6603;47.066;15.396;2023-09-19T13:57:47;26.20;99.90
13074;DHT22;6603;47.066;15.396;2023-09-19T14:00:18;26.30;99.90
13074;DHT22;6603;47.066;15.396;2023-09-19T14:02:44;26.30;99.90
13074;DHT22;6603;47.066;15.396;2023-09-19T14:05:10;26.20;99.90
13074;DHT22;6603;47.066;15.396;2023-09-19T14:07:41;26.60;99.90
13074;DHT22;6603;47.066;15.396;2023-09-19T14:10:07;27.00;42.10
13074;DHT22;6603;47.066;15.396;2023-09-19T14:12:34;27.00;95.90
13074;DHT22;6603;47.066;15.396;2023-09-19T14:15:00;27.10;17.40
13074;DHT22;6603;47.066;15.396;2023-09-19T14:17:26;26.70;1.00
13074;DHT22;6603;47.066;15.396;2023-09-19T14:19:52;26.70;26.10
13074;DHT22;6603;47.066;15.396;2023-09-19T14:22:18;26.90;1.00
13074;DHT22;6603;47.066;15.396;2023-09-19T14:24:44;26.80;1.00
13074;DHT22;6603;47.066;15.396;2023-09-19T14:27:09;26.20;1.00
13074;DHT22;6603;47.066;15.396;2023-09-19T14:29:36;26.20;13.20
13074;DHT22;6603;47.066;15.396;2023-09-19T14:32:02;26.00;99.90
13074;DHT22;6603;47.066;15.396;2023-09-19T14:34:28;26.40;99.90
13074;DHT22;6603;47.066;15.396;2023-09-19T14:36:54;26.70;52.60
13074;DHT22;6603;47.066;15.396;2023-09-19T14:39:20;26.90;93.70
13074;DHT22;6603;47.066;15.396;2023-09-19T14:41:45;26.90;1.00
13074;DHT22;6603;47.066;15.396;2023-09-19T14:44:11;26.90;91.90
13074;DHT22;6603;47.066;15.396;2023-09-19T14:46:38;26.50;15.10
13074;DHT22;6603;47.066;15.396;2023-09-19T14:49:04;26.50;42.80
13074;DHT22;6603;47.066;15.396;2023-09-19T14:51:32;26.50;99.90
13074;DHT22;6603;47.066;15.396;2023-09-19T14:53:57;26.40;99.90
13074;DHT22;6603;47.066;15.396;2023-09-19T14:56:24;26.40;99.90
13074;DHT22;6603;47.066;15.396;2023-09-19T14:58:53;26.50;99.90
13074;DHT22;6603;47.066;15.396;2023-09-19T15:01:18;26.30;99.90
13074;DHT22;6603;47.066;15.396;2023-09-19T15:03:44;26.30;99.90
13074;DHT22;6603;47.066;15.396;2023-09-19T15:06:12;26.20;99.90
13074;DHT22;6603;47.066;15.396;2023-09-19T15:08:43;26.10;99.90
13074;DHT22;6603;47.066;15.396;2023-09-19T15:11:19;26.00;99.90
13074;DHT22;6603;47.066;15.396;2023-09-19T15:13:46;25.80;99.90
13074;DHT22;6603;47.066;15.396;2023-09-19T15:16:13;25.80;99.90
13074;DHT22;6603;47.066;15.396;2023-09-19T15:18:44;25.70;99.90
13074;DHT22;6603;47.066;15.396;2023-09-19T15:21:13;25.50;1.00
13074;DHT22;6603;47.066;15.396;2023-09-19T15:23:41;25.40;99.90
13074;DHT22;6603;47.066;15.396;2023-09-19T15:26:09;25.40;1.00
13074;DHT22;6603;47.066;15.396;2023-09-19T15:28:37;25.30;1.00
13074;DHT22;6603;47.066;15.396;2023-09-19T15:31:08;25.10;1.00
13074;DHT22;6603;47.066;15.396;2023-09-19T15:33:35;25.00;99.90
13074;DHT22;6603;47.066;15.396;2023-09-19T15:36:05;24.80;1.00
13074;DHT22;6603;47.066;15.396;2023-09-19T15:38:31;24.70;99.90
13074;DHT22;6603;47.066;15.396;2023-09-19T15:41:00;24.40;1.00
13074;DHT22;6603;47.066;15.396;2023-09-19T15:43:26;24.30;1.00
13074;DHT22;6603;47.066;15.396;2023-09-19T15:45:52;24.30;99.90
13074;DHT22;6603;47.066;15.396;2023-09-19T15:48:18;24.20;99.90
13074;DHT22;6603;47.066;15.396;2023-09-19T15:50:47;24.10;1.00
13074;DHT22;6603;47.066;15.396;2023-09-19T15:53:13;23.80;1.00
13074;DHT22;6603;47.066;15.396;2023-09-19T15:55:39;23.60;1.00
13074;DHT22;6603;47.066;15.396;2023-09-19T15:58:06;23.50;99.90
13074;DHT22;6603;47.066;15.396;2023-09-19T16:00:32;23.40;99.90
13074;DHT22;6603;47.066;15.396;2023-09-19T16:03:02;23.40;1.00
13074;DHT22;6603;47.066;15.396;2023-09-19T16:05:34;23.20;1.00
13074;DHT22;6603;47.066;15.396;2023-09-19T16:08:04;23.10;1.00
13074;DHT22;6603;47.066;15.396;2023-09-19T16:10:34;23.00;1.00
13074;DHT22;6603;47.066;15.396;2023-09-19T16:13:01;22.70;1.00
13074;DHT22;6603;47.066;15.396;2023-09-19T16:15:27;22.60;1.00
13074;DHT22;6603;47.066;15.396;2023-09-19T16:17:52;22.30;1.00
13074;DHT22;6603;47.066;15.396;2023-09-19T16:20:18;22.20;99.90
13074;DHT22;6603;47.066;15.396;2023-09-19T16:22:45;22.00;1.00
13074;DHT22;6603;47.066;15.396;2023-09-19T16:25:12;22.00;1.00
13074;DHT22;6603;47.066;15.396;2023-09-19T16:27:37;21.80;1.00
13074;DHT22;6603;47.066;15.396;2023-09-19T16:30:04;21.60;1.00
13074;DHT22;6603;47.066;15.396;2023-09-19T16:32:31;21.60;1.00
13074;DHT22;6603;47.066;15.396;2023-09-19T16:34:58;21.60;1.00
13074;DHT22;6603;47.066;15.396;2023-09-19T16:37:24;21.50;1.00
13074;DHT22;6603;47.066;15.396;2023-09-19T16:39:50;21.30;1.00
13074;DHT22;6603;47.066;15.396;2023-09-19T16:42:16;21.40;1.00